• Join FlightAware (Why Join?)
  • Login
  • US Flag 
12:39AM EDT


 

Airport Tracker/Info


-or-


 

Live Flight TrackerFlight Track Log ✈ SKW5586 ✈ 05-May-2012 ✈ KSFO - KLAS

Flight Track Log - Related Links

Times and Time Zones

All times are in EDT time to prevent confusion due to time zone crossing. See the SKW5586 flight status page for this flight to view local times or setup timezone preferences in your user account.

Time Position Orientation Groundspeed Altitude Reporting Facility
EDT Latitude Longitude Course Direction KTS MPH feet Rate Location/Type
12:35PM 37.6080 -122.3135 103° East  Level Estimated
12:36PM 37.5873 -122.1984 103° East  Level Estimated
12:37PM 37.5664 -122.0833 103° East  Level Estimated
12:38PM 37.5455 -121.9683 103° East  Level Estimated
12:39PM 37.5244 -121.8534 103° East  Level Estimated
12:40PM 37.5033 -121.7386 103° East  Level Estimated
12:41PM 37.4820 -121.6238 103° East  Level Estimated
12:42PM 37.4606 -121.5091 103° East  Level Estimated
12:43PM 37.4392 -121.3944 103° East  Level Estimated
12:44PM 37.4175 -121.2798 103° East  Level Estimated
12:45PM 37.3958 -121.1653 103° East  Level Estimated
12:46PM 37.3740 -121.0509 104° East  Level Estimated
12:47PM 37.3521 -120.9365 104° East  Level Estimated
12:48PM 37.3301 -120.8222 104° East  Level Estimated
12:49PM 37.3079 -120.7079 104° East  Level Estimated
12:50PM 37.2856 -120.5937 104° East  Level Estimated
12:51PM 37.2633 -120.4796 104° East  Level Estimated
12:52PM 37.2408 -120.3655 104° East  Level Estimated
12:53PM 37.2182 -120.2516 104° East  Level Estimated
12:54PM 37.1955 -120.1377 104° East  Level Estimated
12:55PM 37.1727 -120.0238 104° East  Level Estimated
12:56PM 37.1498 -119.9100 104° East  Level Estimated
12:57PM 37.1267 -119.7963 104° East  Level Estimated
12:58PM 37.1036 -119.6827 104° East  Level Estimated
12:59PM 37.0804 -119.5691 104° East  Level Estimated
01:00PM 37.0570 -119.4556 104° East  Level Estimated
01:01PM 37.0336 -119.3422 105° East  Level Estimated
01:02PM 37.0100 -119.2288 105° East  Level Estimated
01:03PM 36.9863 -119.1156 105° East  Level Estimated
01:04PM 36.9625 -119.0023 105° East  Level Estimated
01:05PM 36.9386 -118.8892 105° East  Level Estimated
01:06PM 36.9146 -118.7761 105° East  Level Estimated
01:07PM 36.8905 -118.6631 105° East  Level Estimated
01:08PM 36.8663 -118.5502 105° East  Level Estimated
01:09PM 36.8420 -118.4373 105° East  Level Estimated
01:10PM 36.8176 -118.3246 105° East  Level Estimated
01:11PM 36.7930 -118.2119 105° East  Level Estimated
01:12PM 36.7684 -118.0992 105° East  Level Estimated
01:13PM 36.7436 -117.9866 105° East  Level Estimated
01:14PM 36.7188 -117.8741 105° East  Level Estimated
01:15PM 36.6938 -117.7617 106° East  Level Estimated
01:16PM 36.6688 -117.6494 106° East  Level Estimated
01:17PM 36.6436 -117.5371 106° East  Level Estimated
01:18PM 36.6183 -117.4249 106° East  Level Estimated
01:19PM 36.5930 -117.3127 106° East  Level Estimated
01:20PM 36.5675 -117.2007 106° East  Level Estimated
01:21PM 36.5419 -117.0887 106° East  Level Estimated
01:22PM 36.5162 -116.9768 106° East  Level Estimated
01:23PM 36.4904 -116.8650 106° East  Level Estimated
01:24PM 36.4645 -116.7532 106° East  Level Estimated
01:25PM 36.4385 -116.6415 106° East  Level Estimated
01:26PM 36.4124 -116.5299 106° East  Level Estimated
01:27PM 36.3862 -116.4184 106° East  Level Estimated
01:28PM 36.3599 -116.3069 106° East  Level Estimated
01:29PM 36.3334 -116.1955 106° East  Level Estimated
01:30PM 36.3069 -116.0842 107° East  Level Estimated
01:31PM 36.2803 -115.9730 107° East  Level Estimated
01:32PM 36.2536 -115.8618 107° East  Level Estimated
01:33PM 36.2267 -115.7507 107° East  Level Estimated
01:34PM 36.1998 -115.6397 107° East  Level Estimated
01:35PM 36.1727 -115.5288 107° East  Level Estimated
01:36PM 36.1456 -115.4180 107° East  Level Estimated
01:37PM 36.1184 -115.3072 107° East  Level Estimated
01:38PM 36.0910 -115.1965 107° East  Level Estimated
01:39PM 36.0636 -115.0859 287° West  Level Estimated
01:40PM 36.0910 -115.1965 107° East  Level Estimated
01:41PM 36.0636 -115.0859 107° East  Level Estimated